createdAt,value
2022-07-29T00:01:21.240Z,100771.44
2022-07-29T00:03:49.704Z,100772.44
2022-07-29T00:06:18.342Z,100771.38
2022-07-29T00:08:46.680Z,100765.91
2022-07-29T00:11:15.041Z,100775.09
2022-07-29T00:13:45.381Z,100765.91
2022-07-29T00:16:17.424Z,100767.81
2022-07-29T00:18:45.362Z,100759.88
2022-07-29T00:21:13.518Z,100753.34
2022-07-29T00:23:41.876Z,100769.03
2022-07-29T00:26:10.149Z,100779.94
2022-07-29T00:28:37.855Z,100775.88
2022-07-29T00:31:06.545Z,100777.09
2022-07-29T00:33:34.565Z,100772.78
2022-07-29T00:36:03.404Z,100767.63
2022-07-29T00:38:31.229Z,100756.59
2022-07-29T00:40:59.592Z,100752.94
2022-07-29T00:43:28.228Z,100747.88
2022-07-29T00:45:56.656Z,100745.63
2022-07-29T00:48:24.785Z,100738.75
2022-07-29T00:50:52.702Z,100759.63
2022-07-29T00:53:21.525Z,100752.53
2022-07-29T00:55:49.924Z,100761.31
2022-07-29T00:58:20.921Z,100769.75
2022-07-29T01:00:48.916Z,100759.19
2022-07-29T01:03:17.521Z,100761.44
2022-07-29T01:05:49.686Z,100750.38
2022-07-29T01:08:20.430Z,100755.66
2022-07-29T01:10:49.305Z,100754.88
2022-07-29T01:13:18.785Z,100761.31
2022-07-29T01:15:52.861Z,100750.50
2022-07-29T01:18:40.832Z,100749.13
2022-07-29T01:21:17.672Z,100751.19
2022-07-29T01:24:10.023Z,100751.34
2022-07-29T01:27:15.727Z,100762.28
2022-07-29T01:30:05.277Z,100754.72
2022-07-29T01:32:38.494Z,100755.03
2022-07-29T01:35:16.771Z,100749.50
2022-07-29T01:37:50.240Z,100745.19
2022-07-29T01:40:23.411Z,100751.34
2022-07-29T01:42:55.505Z,100754.72
2022-07-29T01:45:43.181Z,100751.56
2022-07-29T01:48:32.695Z,100748.16
2022-07-29T01:51:09.291Z,100749.28
2022-07-29T01:53:43.825Z,100742.41
2022-07-29T01:56:15.016Z,100748.97
2022-07-29T01:58:45.156Z,100751.47
2022-07-29T02:01:15.073Z,100749.69
2022-07-29T02:03:46.065Z,100754.41
2022-07-29T02:06:20.731Z,100751.97
2022-07-29T02:08:51.423Z,100755.75
2022-07-29T02:11:19.849Z,100753.59
2022-07-29T02:13:50.377Z,100758.00
2022-07-29T02:16:23.393Z,100751.44
2022-07-29T02:18:53.921Z,100760.66
2022-07-29T02:21:26.304Z,100763.91
2022-07-29T02:23:55.987Z,100757.81
2022-07-29T02:26:27.233Z,100771.84
2022-07-29T02:28:58.448Z,100774.50
2022-07-29T02:31:31.492Z,100767.88
2022-07-29T02:34:01.762Z,100762.63
2022-07-29T02:36:31.803Z,100767.97
2022-07-29T02:39:01.835Z,100766.03
2022-07-29T02:41:41.691Z,100767.91
2022-07-29T02:44:17.897Z,100761.94
2022-07-29T02:46:53.294Z,100764.97
2022-07-29T02:49:24.800Z,100761.94
2022-07-29T02:51:56.808Z,100766.00
2022-07-29T02:54:38.649Z,100767.00
2022-07-29T02:57:13.255Z,100764.69
2022-07-29T02:59:43.787Z,100769.59
2022-07-29T03:02:15.008Z,100773.44
2022-07-29T03:04:45.229Z,100764.91
2022-07-29T03:07:19.509Z,100768.63
2022-07-29T03:09:47.559Z,100772.66
2022-07-29T03:12:16.449Z,100773.59
2022-07-29T03:14:45.797Z,100770.53
2022-07-29T03:17:14.950Z,100772.84
2022-07-29T03:19:44.007Z,100769.09
2022-07-29T03:22:12.109Z,100760.13
2022-07-29T03:24:40.239Z,100760.69
2022-07-29T03:27:08.483Z,100751.44
2022-07-29T03:29:36.402Z,100759.19
2022-07-29T03:32:08.182Z,100760.13
2022-07-29T03:34:39.043Z,100754.00
2022-07-29T03:37:07.563Z,100753.47
2022-07-29T03:39:41.986Z,100755.56
2022-07-29T03:42:15.009Z,100757.16
2022-07-29T03:44:46.974Z,100762.50
2022-07-29T03:47:16.692Z,100766.09
2022-07-29T03:49:49.773Z,100772.97
2022-07-29T03:52:18.505Z,100772.31
2022-07-29T03:54:46.876Z,100773.69
2022-07-29T03:57:16.286Z,100766.38
2022-07-29T03:59:45.242Z,100781.81
2022-07-29T04:02:14.924Z,100764.34
2022-07-29T04:04:45.512Z,100766.94
2022-07-29T04:07:14.824Z,100766.16
2022-07-29T04:09:43.269Z,100767.94
2022-07-29T04:12:12.303Z,100767.91
2022-07-29T04:14:40.111Z,100765.97
2022-07-29T04:17:09.049Z,100777.91
2022-07-29T04:19:36.871Z,100784.00
2022-07-29T04:22:05.070Z,100778.00
2022-07-29T04:24:33.678Z,100789.91
2022-07-29T04:27:01.420Z,100804.06
2022-07-29T04:29:29.517Z,100814.78
2022-07-29T04:31:57.345Z,100811.72
2022-07-29T04:34:28.288Z,100811.09
2022-07-29T04:36:56.985Z,100815.22
2022-07-29T04:39:25.727Z,100820.28
2022-07-29T04:41:57.431Z,100811.06
2022-07-29T04:44:28.599Z,100813.66
2022-07-29T04:46:57.936Z,100815.50
2022-07-29T04:49:25.984Z,100813.84
2022-07-29T04:51:54.108Z,100819.66
2022-07-29T04:54:21.855Z,100829.91
2022-07-29T04:56:50.376Z,100823.06
2022-07-29T04:59:18.348Z,100836.50
2022-07-29T05:01:46.182Z,100836.09
2022-07-29T05:04:14.275Z,100835.06
2022-07-29T05:06:42.920Z,100841.34
2022-07-29T05:09:11.247Z,100854.13
2022-07-29T05:11:39.452Z,100848.94
2022-07-29T05:14:07.745Z,100852.38
2022-07-29T05:16:35.622Z,100854.47
2022-07-29T05:19:03.752Z,100862.19
2022-07-29T05:21:32.380Z,100855.34
2022-07-29T05:24:00.526Z,100863.81
2022-07-29T05:26:28.505Z,100860.16
2022-07-29T05:28:56.347Z,100853.50
2022-07-29T05:31:24.738Z,100850.13
2022-07-29T05:33:52.524Z,100851.78
2022-07-29T05:36:20.463Z,100848.56
2022-07-29T05:38:48.202Z,100849.00
2022-07-29T05:41:16.419Z,100854.00
2022-07-29T05:43:44.157Z,100852.03
2022-07-29T05:46:12.740Z,100859.38
2022-07-29T05:48:41.003Z,100851.75
2022-07-29T05:51:08.727Z,100847.41
2022-07-29T05:53:36.748Z,100854.53
2022-07-29T05:56:06.510Z,100853.72
2022-07-29T05:58:34.499Z,100850.53
2022-07-29T06:01:03.343Z,100849.72
2022-07-29T06:03:31.609Z,100851.44
2022-07-29T06:06:01.495Z,100856.75
2022-07-29T06:08:30.268Z,100851.72
2022-07-29T06:10:59.145Z,100851.84
2022-07-29T06:13:27.361Z,100856.78
2022-07-29T06:15:55.210Z,100852.38
2022-07-29T06:18:24.958Z,100848.53
2022-07-29T06:20:54.575Z,100846.22
2022-07-29T06:23:22.468Z,100846.22
2022-07-29T06:25:50.705Z,100840.28
2022-07-29T06:28:18.484Z,100833.13
2022-07-29T06:30:46.420Z,100840.91
2022-07-29T06:33:19.811Z,100839.28
2022-07-29T06:35:53.180Z,100838.69
2022-07-29T06:38:30.206Z,100845.53
2022-07-29T06:41:03.891Z,100843.47
2022-07-29T06:43:50.592Z,100852.81
2022-07-29T06:46:21.806Z,100839.13
2022-07-29T06:48:50.267Z,100844.50
2022-07-29T06:51:22.390Z,100846.78
2022-07-29T06:54:00.658Z,100851.06
2022-07-29T06:56:38.429Z,100849.78
2022-07-29T06:59:09.979Z,100866.72
2022-07-29T07:01:39.254Z,100864.22
2022-07-29T07:04:18.567Z,100860.22
2022-07-29T07:06:51.885Z,100872.00
2022-07-29T07:09:20.053Z,100872.47
2022-07-29T07:11:49.498Z,100879.94
2022-07-29T07:14:18.810Z,100874.16
2022-07-29T07:16:46.761Z,100876.22
2022-07-29T07:19:15.938Z,100883.47
2022-07-29T07:21:43.929Z,100883.19
2022-07-29T07:24:13.322Z,100883.19
2022-07-29T07:26:41.538Z,100875.81
2022-07-29T07:29:09.282Z,100882.03
2022-07-29T07:31:38.481Z,100877.25
2022-07-29T07:34:06.404Z,100875.59
2022-07-29T07:36:34.554Z,100882.38
2022-07-29T07:39:03.455Z,100883.09
2022-07-29T07:41:32.641Z,100888.63
2022-07-29T07:44:00.485Z,100889.69
2022-07-29T07:46:28.413Z,100891.81
2022-07-29T07:48:56.109Z,100882.69
2022-07-29T07:51:23.832Z,100872.41
2022-07-29T07:53:51.611Z,100874.50
2022-07-29T07:56:19.599Z,100869.19
2022-07-29T07:58:47.695Z,100869.25
2022-07-29T08:01:18.836Z,100854.66
2022-07-29T08:03:46.910Z,100854.31
2022-07-29T08:06:14.791Z,100860.16
2022-07-29T08:08:42.862Z,100845.78
2022-07-29T08:11:11.188Z,100850.72
2022-07-29T08:13:39.774Z,100847.94
2022-07-29T08:16:16.309Z,100838.59
2022-07-29T08:18:46.862Z,100845.63
2022-07-29T08:21:16.509Z,100842.72
2022-07-29T08:23:57.621Z,100843.13
2022-07-29T08:26:26.173Z,100835.78
2022-07-29T08:28:54.604Z,100835.53
2022-07-29T08:31:22.419Z,100834.72
2022-07-29T08:33:50.846Z,100830.72
2022-07-29T08:36:18.950Z,100840.81
2022-07-29T08:38:47.471Z,100837.13
2022-07-29T08:41:15.945Z,100835.50
2022-07-29T08:43:43.823Z,100833.19
2022-07-29T08:46:12.088Z,100840.53
2022-07-29T08:48:40.407Z,100825.03
2022-07-29T08:51:09.763Z,100830.50
2022-07-29T08:53:39.200Z,100836.56
2022-07-29T08:56:07.638Z,100823.78
2022-07-29T08:58:36.847Z,100831.84
2022-07-29T09:01:05.050Z,100835.44
2022-07-29T09:03:38.626Z,100835.66
2022-07-29T09:06:07.183Z,100839.47
2022-07-29T09:08:35.726Z,100843.19
2022-07-29T09:11:05.292Z,100838.22
2022-07-29T09:13:33.747Z,100834.00
2022-07-29T09:16:07.043Z,100841.75
2022-07-29T09:18:42.944Z,100826.34
2022-07-29T09:21:33.934Z,100823.06
2022-07-29T09:24:14.888Z,100811.41
2022-07-29T09:26:45.326Z,100809.69
2022-07-29T09:29:21.272Z,100800.72
2022-07-29T09:31:52.097Z,100807.97
2022-07-29T09:34:25.233Z,100803.25
2022-07-29T09:36:54.256Z,100805.09
2022-07-29T09:39:35.273Z,100805.28
2022-07-29T09:42:06.270Z,100809.78
2022-07-29T09:44:49.294Z,100806.88
2022-07-29T09:47:22.825Z,100809.44
2022-07-29T09:49:55.508Z,100813.88
2022-07-29T09:52:23.730Z,100814.56
2022-07-29T09:54:51.819Z,100808.59
2022-07-29T09:57:38.042Z,100799.09
2022-07-29T10:00:08.261Z,100799.88
2022-07-29T10:02:45.219Z,100804.88
2022-07-29T10:05:23.747Z,100802.19
2022-07-29T10:07:57.699Z,100802.22
2022-07-29T10:10:29.230Z,100797.78
2022-07-29T10:13:01.791Z,100797.06
2022-07-29T10:15:44.993Z,100802.56
2022-07-29T10:18:15.615Z,100790.47
2022-07-29T10:20:43.743Z,100796.13
2022-07-29T10:23:12.349Z,100793.00
2022-07-29T10:25:45.680Z,100795.31
2022-07-29T10:28:16.809Z,100776.59
2022-07-29T10:30:47.254Z,100775.66
2022-07-29T10:33:38.442Z,100780.41
2022-07-29T10:36:25.254Z,100784.03
2022-07-29T10:38:55.174Z,100789.75
2022-07-29T10:41:57.565Z,100780.91
2022-07-29T10:44:28.370Z,100780.31
2022-07-29T10:46:56.742Z,100781.72
2022-07-29T10:49:30.375Z,100774.31
2022-07-29T10:52:10.655Z,100768.16
2022-07-29T10:54:42.567Z,100770.78
2022-07-29T10:57:52.565Z,100760.84
2022-07-29T11:00:17.331Z,100761.66
2022-07-29T11:02:54.398Z,100757.75
2022-07-29T11:05:24.646Z,100751.53
2022-07-29T11:08:20.500Z,100740.84
2022-07-29T11:10:50.361Z,100741.09
2022-07-29T11:13:56.924Z,100737.78
2022-07-29T11:16:26.655Z,100734.09
2022-07-29T11:19:26.477Z,100736.22
2022-07-29T11:21:58.959Z,100725.34
2022-07-29T11:24:30.108Z,100725.47
2022-07-29T11:27:23.398Z,100734.50
2022-07-29T11:29:58.887Z,100731.50
2022-07-29T11:32:38.784Z,100741.66
2022-07-29T11:35:36.928Z,100734.69
2022-07-29T11:38:31.777Z,100731.31
2022-07-29T11:41:18.243Z,100735.44
2022-07-29T11:43:58.423Z,100730.22
2022-07-29T11:49:45.596Z,100727.13
2022-07-29T11:52:16.201Z,100718.59
2022-07-29T11:54:57.753Z,100716.84
2022-07-29T11:57:36.675Z,100716.31
2022-07-29T12:00:12.539Z,100708.38
2022-07-29T12:02:48.092Z,100713.63
2022-07-29T12:07:02.023Z,100715.59
2022-07-29T12:07:02.572Z,100713.94
2022-07-29T12:08:08.729Z,100710.00
2022-07-29T12:10:42.803Z,100716.78
2022-07-29T12:13:11.632Z,100707.56
2022-07-29T12:15:47.248Z,100713.75
2022-07-29T12:18:24.347Z,100711.06
2022-07-29T12:21:03.805Z,100702.53
2022-07-29T12:23:35.100Z,100703.31
2022-07-29T12:26:10.728Z,100701.00
2022-07-29T12:28:39.968Z,100698.38
2022-07-29T12:31:41.971Z,100688.50
2022-07-29T12:34:03.574Z,100686.63
2022-07-29T12:36:31.606Z,100688.06
2022-07-29T12:38:59.475Z,100684.69
2022-07-29T12:41:30.071Z,100686.69
2022-07-29T12:43:57.809Z,100685.41
2022-07-29T12:46:26.181Z,100679.06
2022-07-29T12:48:56.160Z,100678.88
2022-07-29T12:51:38.978Z,100679.19
2022-07-29T12:54:11.742Z,100678.84
2022-07-29T12:56:44.684Z,100677.59
2022-07-29T12:59:24.024Z,100669.81
2022-07-29T13:01:53.278Z,100668.53
2022-07-29T13:04:37.649Z,100663.75
2022-07-29T13:07:09.248Z,100663.66
2022-07-29T13:09:43.938Z,100663.53
2022-07-29T13:12:13.957Z,100655.78
2022-07-29T13:14:44.754Z,100654.00
2022-07-29T13:17:18.721Z,100649.47
2022-07-29T13:20:09.865Z,100630.16
2022-07-29T13:22:38.076Z,100614.03
2022-07-29T13:25:07.700Z,100623.13
2022-07-29T13:27:39.129Z,100614.22
2022-07-29T13:30:10.514Z,100609.91
2022-07-29T13:32:38.791Z,100614.53
2022-07-29T13:35:09.389Z,100614.00
2022-07-29T13:37:39.545Z,100605.22
2022-07-29T13:40:09.656Z,100590.88
2022-07-29T13:42:38.600Z,100591.19
2022-07-29T13:45:07.785Z,100589.94
2022-07-29T13:47:36.066Z,100583.81
2022-07-29T13:50:06.260Z,100583.94
2022-07-29T13:52:35.933Z,100576.81
2022-07-29T13:55:04.712Z,100572.06
2022-07-29T13:57:33.485Z,100571.28
2022-07-29T14:00:01.223Z,100573.03
2022-07-29T14:02:36.392Z,100565.63
2022-07-29T14:05:08.402Z,100565.56
2022-07-29T14:07:39.702Z,100570.56
2022-07-29T14:10:08.502Z,100567.19
2022-07-29T14:12:37.719Z,100567.00
2022-07-29T14:15:06.067Z,100553.72
2022-07-29T14:17:33.765Z,100563.13
2022-07-29T14:20:02.385Z,100561.34
2022-07-29T14:22:31.071Z,100570.72
2022-07-29T14:24:59.669Z,100569.28
2022-07-29T14:27:44.258Z,100580.25
2022-07-29T14:30:12.985Z,100577.25
2022-07-29T14:32:40.955Z,100578.78
2022-07-29T14:35:09.183Z,100584.63
2022-07-29T14:37:40.170Z,100583.81
2022-07-29T14:40:11.378Z,100574.25
2022-07-29T14:42:39.966Z,100576.03
2022-07-29T14:45:10.670Z,100588.06
2022-07-29T14:47:40.571Z,100587.31
2022-07-29T14:50:09.279Z,100583.91
2022-07-29T14:52:37.850Z,100593.53
2022-07-29T14:55:19.476Z,100585.03
2022-07-29T14:57:48.892Z,100587.22
2022-07-29T15:00:18.045Z,100579.97
2022-07-29T15:03:01.272Z,100581.06
2022-07-29T15:05:32.254Z,100582.63
2022-07-29T15:08:00.609Z,100579.59
2022-07-29T15:10:28.462Z,100576.41
2022-07-29T15:13:00.584Z,100578.28
2022-07-29T15:15:29.001Z,100574.38
2022-07-29T15:17:56.856Z,100566.69
2022-07-29T15:20:26.853Z,100564.88
2022-07-29T15:22:56.595Z,100575.09
2022-07-29T15:25:25.632Z,100571.47
2022-07-29T15:28:01.327Z,100570.16
2022-07-29T15:30:33.600Z,100562.69
2022-07-29T15:33:04.431Z,100572.03
2022-07-29T15:35:33.223Z,100580.38
2022-07-29T15:38:08.432Z,100582.00
2022-07-29T15:40:39.213Z,100592.63
2022-07-29T15:43:07.623Z,100594.69
2022-07-29T15:45:40.875Z,100593.09
2022-07-29T15:48:10.202Z,100602.84
2022-07-29T15:50:42.880Z,100602.31
2022-07-29T15:53:15.222Z,100602.34
2022-07-29T15:55:44.554Z,100612.69
2022-07-29T15:58:12.479Z,100620.81
2022-07-29T16:00:40.384Z,100632.97
2022-07-29T16:03:08.634Z,100638.69
2022-07-29T16:05:36.668Z,100642.03
2022-07-29T16:08:05.651Z,100651.53
2022-07-29T16:10:33.826Z,100651.28
2022-07-29T16:13:01.820Z,100641.81
2022-07-29T16:15:29.607Z,100639.50
2022-07-29T16:17:57.809Z,100635.84
2022-07-29T16:20:25.561Z,100625.63
2022-07-29T16:22:54.303Z,100619.78
2022-07-29T16:25:38.372Z,100621.47
2022-07-29T16:28:11.216Z,100635.63
2022-07-29T16:30:39.467Z,100627.56
2022-07-29T16:33:08.515Z,100628.59
2022-07-29T16:35:40.170Z,100624.47
2022-07-29T16:38:08.669Z,100616.19
2022-07-29T16:40:36.475Z,100613.31
2022-07-29T16:43:04.813Z,100623.44
2022-07-29T16:45:45.171Z,100622.59
2022-07-29T16:48:18.081Z,100626.28
2022-07-29T16:50:47.305Z,100627.38
2022-07-29T16:53:15.476Z,100624.88
2022-07-29T16:55:43.316Z,100632.53
2022-07-29T16:58:12.085Z,100632.94
2022-07-29T17:00:40.217Z,100635.22
2022-07-29T17:03:08.224Z,100631.44
2022-07-29T17:05:50.794Z,100628.22
2022-07-29T17:08:23.061Z,100629.66
2022-07-29T17:10:51.346Z,100633.75
2022-07-29T17:13:20.309Z,100637.84
2022-07-29T17:15:48.649Z,100634.09
2022-07-29T17:18:17.337Z,100629.38
2022-07-29T17:20:46.698Z,100637.59
2022-07-29T17:23:14.455Z,100649.13
2022-07-29T17:25:42.231Z,100657.00
2022-07-29T17:28:10.817Z,100653.25
2022-07-29T17:30:38.599Z,100656.50
2022-07-29T17:33:06.897Z,100648.53
2022-07-29T17:35:53.576Z,100650.31
2022-07-29T17:38:21.516Z,100651.75
2022-07-29T17:40:49.741Z,100651.56
2022-07-29T17:43:17.772Z,100653.91
2022-07-29T17:45:50.028Z,100640.97
2022-07-29T17:48:19.661Z,100637.94
2022-07-29T17:50:48.630Z,100640.63
2022-07-29T17:53:16.838Z,100638.19
2022-07-29T17:55:47.635Z,100642.03
2022-07-29T17:58:16.096Z,100640.78
2022-07-29T18:00:44.671Z,100637.31
2022-07-29T18:03:13.257Z,100640.63
2022-07-29T18:05:41.763Z,100640.78
2022-07-29T18:08:10.573Z,100642.22
2022-07-29T18:10:38.508Z,100645.66
2022-07-29T18:13:07.450Z,100651.97
2022-07-29T18:15:35.696Z,100653.59
2022-07-29T18:18:03.536Z,100662.25
2022-07-29T18:20:32.619Z,100666.56
2022-07-29T18:23:01.421Z,100669.91
2022-07-29T18:25:29.729Z,100664.09
2022-07-29T18:28:00.455Z,100658.88
2022-07-29T18:30:29.635Z,100663.13
2022-07-29T18:35:50.108Z,100667.78
2022-07-29T18:38:18.135Z,100677.13
2022-07-29T18:40:46.753Z,100677.09
2022-07-29T18:43:15.002Z,100679.16
2022-07-29T18:45:42.827Z,100683.91
2022-07-29T18:48:13.144Z,100686.00
2022-07-29T18:50:41.829Z,100698.28
2022-07-29T18:53:10.130Z,100693.72
2022-07-29T18:55:38.102Z,100700.13
2022-07-29T18:58:05.894Z,100696.41
2022-07-29T19:00:33.618Z,100704.50
2022-07-29T19:03:03.270Z,100720.88
2022-07-29T19:05:31.231Z,100733.31
2022-07-29T19:07:59.161Z,100763.50
2022-07-29T19:10:27.457Z,100777.47
2022-07-29T19:12:56.885Z,100777.31
2022-07-29T19:15:25.396Z,100776.06
2022-07-29T19:18:00.855Z,100763.34
2022-07-29T19:20:29.744Z,100752.47
2022-07-29T19:22:58.620Z,100746.09
2022-07-29T19:25:26.801Z,100736.81
2022-07-29T19:27:54.725Z,100738.34
2022-07-29T19:30:23.312Z,100734.38
2022-07-29T19:32:51.543Z,100729.00
2022-07-29T19:35:32.898Z,100730.84
2022-07-29T19:38:02.532Z,100735.22
2022-07-29T19:40:30.394Z,100731.88
2022-07-29T19:42:58.340Z,100739.41
2022-07-29T19:45:26.257Z,100739.25
2022-07-29T19:47:59.123Z,100736.91
2022-07-29T19:50:29.509Z,100753.56
2022-07-29T19:52:57.905Z,100758.41
2022-07-29T19:55:26.162Z,100776.00
2022-07-29T19:57:54.474Z,100783.63
2022-07-29T20:00:24.296Z,100789.78
2022-07-29T20:02:52.926Z,100794.41
2022-07-29T20:05:20.697Z,100799.59
2022-07-29T20:07:48.428Z,100807.78
2022-07-29T20:10:17.261Z,100798.78
2022-07-29T20:12:45.083Z,100802.94
2022-07-29T20:15:16.429Z,100811.50
2022-07-29T20:17:44.739Z,100811.72
2022-07-29T20:20:12.719Z,100816.25
2022-07-29T20:22:41.006Z,100814.59
2022-07-29T20:25:10.092Z,100823.81
2022-07-29T20:27:40.713Z,100822.22
2022-07-29T20:30:09.175Z,100822.41
2022-07-29T20:32:39.985Z,100829.53
2022-07-29T20:35:08.748Z,100817.91
2022-07-29T20:37:52.393Z,100820.47
2022-07-29T20:40:29.057Z,100825.53
2022-07-29T20:42:56.701Z,100817.69
2022-07-29T20:45:24.762Z,100826.19
2022-07-29T20:47:53.045Z,100827.69
2022-07-29T20:50:24.089Z,100828.38
2022-07-29T20:52:53.101Z,100824.38
2022-07-29T20:55:21.126Z,100809.59
2022-07-29T20:57:48.740Z,100817.63
2022-07-29T21:00:16.642Z,100813.47
2022-07-29T21:02:44.518Z,100825.25
2022-07-29T21:05:12.850Z,100814.13
2022-07-29T21:07:41.260Z,100809.41
2022-07-29T21:10:09.129Z,100806.25
2022-07-29T21:12:37.437Z,100820.13
2022-07-29T21:15:06.649Z,100824.34
2022-07-29T21:17:36.196Z,100827.00
2022-07-29T21:20:06.787Z,100826.53
2022-07-29T21:22:34.462Z,100835.94
2022-07-29T21:25:02.517Z,100839.25
2022-07-29T21:27:48.614Z,100824.00
2022-07-29T21:30:16.874Z,100815.44
2022-07-29T21:32:44.901Z,100819.28
2022-07-29T21:35:35.991Z,100829.66
2022-07-29T21:38:00.657Z,100817.53
2022-07-29T21:40:28.538Z,100820.41
2022-07-29T21:42:56.819Z,100811.84
2022-07-29T21:45:25.028Z,100813.13
2022-07-29T21:47:53.121Z,100820.69
2022-07-29T21:50:20.725Z,100823.09
2022-07-29T21:52:48.591Z,100820.03
2022-07-29T21:55:16.157Z,100819.03
2022-07-29T21:57:46.690Z,100826.34
2022-07-29T22:00:15.833Z,100822.44
2022-07-29T22:02:43.743Z,100819.00
2022-07-29T22:05:12.683Z,100808.47
2022-07-29T22:07:55.855Z,100807.84
2022-07-29T22:10:30.218Z,100786.44
2022-07-29T22:12:59.466Z,100784.66
2022-07-29T22:15:28.301Z,100780.47
2022-07-29T22:17:56.529Z,100778.63
2022-07-29T22:20:24.621Z,100766.44
2022-07-29T22:22:52.775Z,100771.09
2022-07-29T22:25:20.935Z,100765.25
2022-07-29T22:27:49.636Z,100766.63
2022-07-29T22:30:17.226Z,100764.28
2022-07-29T22:32:44.894Z,100762.69
2022-07-29T22:35:12.495Z,100765.09
2022-07-29T22:37:40.119Z,100758.44
2022-07-29T22:40:08.227Z,100763.16
2022-07-29T22:42:36.388Z,100760.19
2022-07-29T22:45:11.131Z,100756.97
2022-07-29T22:47:48.450Z,100764.28
2022-07-29T22:50:17.214Z,100766.91
2022-07-29T22:52:46.374Z,100763.34
2022-07-29T22:55:15.166Z,100758.72
2022-07-29T22:57:43.878Z,100749.47
2022-07-29T23:00:13.577Z,100748.72
2022-07-29T23:02:41.667Z,100747.63
2022-07-29T23:05:10.521Z,100741.34
2022-07-29T23:07:38.228Z,100742.59
2022-07-29T23:10:06.486Z,100735.59
2022-07-29T23:12:34.775Z,100724.97
2022-07-29T23:15:04.318Z,100724.53
2022-07-29T23:17:36.102Z,100717.03
2022-07-29T23:20:09.760Z,100710.34
2022-07-29T23:22:37.650Z,100717.38
2022-07-29T23:25:06.400Z,100713.69
2022-07-29T23:27:33.953Z,100708.75
2022-07-29T23:30:01.737Z,100708.50
2022-07-29T23:32:29.467Z,100715.16
2022-07-29T23:34:57.103Z,100707.13
2022-07-29T23:37:26.966Z,100715.56
2022-07-29T23:39:54.872Z,100711.00
2022-07-29T23:42:22.642Z,100718.31
2022-07-29T23:44:50.325Z,100712.31
2022-07-29T23:47:18.596Z,100709.09
2022-07-29T23:49:50.017Z,100705.66
2022-07-29T23:52:18.638Z,100710.59
2022-07-29T23:54:46.297Z,100716.09
2022-07-29T23:57:14.392Z,100703.44
2022-07-29T23:59:42.076Z,100709.69
